sensor_id;sensor_type;location;lat;lon;timestamp;pressure;altitude;pressure_sealevel;temperature;humidity
55470;BME280;41334;47.872;16.384;2023-07-13T00:01:41;98783.56;;;17.91;75.26
55470;BME280;41334;47.872;16.384;2023-07-13T00:06:45;98773.22;;;17.95;74.40
55470;BME280;41334;47.872;16.384;2023-07-13T00:11:51;98756.41;;;17.95;74.57
55470;BME280;41334;47.872;16.384;2023-07-13T00:16:53;98742.28;;;17.88;74.16
55470;BME280;41334;47.872;16.384;2023-07-13T00:21:55;98755.88;;;17.86;74.86
55470;BME280;41334;47.872;16.384;2023-07-13T00:26:57;98743.34;;;17.76;73.90
55470;BME280;41334;47.872;16.384;2023-07-13T00:32:04;98737.34;;;17.78;74.34
55470;BME280;41334;47.872;16.384;2023-07-13T00:37:07;98734.53;;;17.78;73.97
55470;BME280;41334;47.872;16.384;2023-07-13T00:42:09;98726.34;;;17.66;74.89
55470;BME280;41334;47.872;16.384;2023-07-13T00:47:11;98738.38;;;17.66;74.95
55470;BME280;41334;47.872;16.384;2023-07-13T00:52:14;98733.94;;;17.65;73.22
55470;BME280;41334;47.872;16.384;2023-07-13T00:57:19;98731.91;;;17.62;73.52
55470;BME280;41334;47.872;16.384;2023-07-13T01:02:22;98725.78;;;17.56;75.24
55470;BME280;41334;47.872;16.384;2023-07-13T01:07:25;98709.28;;;17.51;74.47
55470;BME280;41334;47.872;16.384;2023-07-13T01:12:26;98699.75;;;17.56;74.55
55470;BME280;41334;47.872;16.384;2023-07-13T01:17:29;98684.50;;;17.53;74.74
55470;BME280;41334;47.872;16.384;2023-07-13T01:22:31;98649.28;;;17.52;73.33
55470;BME280;41334;47.872;16.384;2023-07-13T01:27:34;98634.38;;;17.45;72.90
55470;BME280;41334;47.872;16.384;2023-07-13T01:32:36;98633.66;;;17.51;74.68
55470;BME280;41334;47.872;16.384;2023-07-13T01:37:38;98647.34;;;17.56;71.30
55470;BME280;41334;47.872;16.384;2023-07-13T01:42:42;98649.53;;;17.70;73.68
55470;BME280;41334;47.872;16.384;2023-07-13T01:47:44;98658.81;;;17.74;73.34
55470;BME280;41334;47.872;16.384;2023-07-13T01:52:47;98662.81;;;17.73;71.39
55470;BME280;41334;47.872;16.384;2023-07-13T01:57:49;98664.47;;;17.78;71.79
55470;BME280;41334;47.872;16.384;2023-07-13T02:02:51;98661.75;;;17.85;72.13
55470;BME280;41334;47.872;16.384;2023-07-13T02:07:53;98651.34;;;17.85;71.47
55470;BME280;41334;47.872;16.384;2023-07-13T02:12:55;98669.63;;;17.76;72.00
55470;BME280;41334;47.872;16.384;2023-07-13T02:17:57;98694.66;;;17.88;70.85
55470;BME280;41334;47.872;16.384;2023-07-13T02:23:00;98735.97;;;17.95;73.34
55470;BME280;41334;47.872;16.384;2023-07-13T02:28:03;98741.66;;;18.02;71.68
55470;BME280;41334;47.872;16.384;2023-07-13T02:33:08;98756.16;;;18.07;71.86
55470;BME280;41334;47.872;16.384;2023-07-13T02:38:10;98793.09;;;18.13;72.11
55470;BME280;41334;47.872;16.384;2023-07-13T02:43:12;98805.09;;;18.10;74.29
55470;BME280;41334;47.872;16.384;2023-07-13T02:48:14;98819.03;;;18.06;73.62
55470;BME280;41334;47.872;16.384;2023-07-13T02:53:16;98845.31;;;17.95;75.31
55470;BME280;41334;47.872;16.384;2023-07-13T02:58:18;98853.63;;;17.87;75.96
55470;BME280;41334;47.872;16.384;2023-07-13T03:03:20;98874.66;;;17.78;77.69
55470;BME280;41334;47.872;16.384;2023-07-13T03:08:23;98886.50;;;17.68;77.54
55470;BME280;41334;47.872;16.384;2023-07-13T03:13:27;98891.47;;;17.55;78.85
55470;BME280;41334;47.872;16.384;2023-07-13T03:18:30;98890.13;;;17.49;78.70
55470;BME280;41334;47.872;16.384;2023-07-13T03:23:36;98891.88;;;17.57;78.22
55470;BME280;41334;47.872;16.384;2023-07-13T03:28:38;98905.28;;;17.44;79.59
55470;BME280;41334;47.872;16.384;2023-07-13T03:33:42;98924.81;;;17.41;80.25
55470;BME280;41334;47.872;16.384;2023-07-13T03:38:47;98934.22;;;17.32;80.81
55470;BME280;41334;47.872;16.384;2023-07-13T03:43:52;98935.41;;;17.31;80.30
55470;BME280;41334;47.872;16.384;2023-07-13T03:48:56;98942.19;;;17.30;80.92
55470;BME280;41334;47.872;16.384;2023-07-13T03:53:59;98922.47;;;17.23;81.34
55470;BME280;41334;47.872;16.384;2023-07-13T03:59:01;98900.13;;;17.27;80.61
55470;BME280;41334;47.872;16.384;2023-07-13T04:04:04;98857.00;;;17.31;80.28
55470;BME280;41334;47.872;16.384;2023-07-13T04:09:06;98841.88;;;17.36;79.75
55470;BME280;41334;47.872;16.384;2023-07-13T04:14:08;98824.38;;;17.43;79.28
55470;BME280;41334;47.872;16.384;2023-07-13T04:19:10;98795.75;;;17.53;78.20
55470;BME280;41334;47.872;16.384;2023-07-13T04:24:12;98792.41;;;17.67;76.37
55470;BME280;41334;47.872;16.384;2023-07-13T04:29:14;98756.97;;;17.78;79.31
55470;BME280;41334;47.872;16.384;2023-07-13T04:34:16;98701.59;;;17.45;81.37
55470;BME280;41334;47.872;16.384;2023-07-13T04:39:18;98683.31;;;17.28;82.31
55470;BME280;41334;47.872;16.384;2023-07-13T04:44:20;98691.41;;;17.59;81.22
55470;BME280;41334;47.872;16.384;2023-07-13T04:49:25;98692.03;;;17.72;79.01
55470;BME280;41334;47.872;16.384;2023-07-13T04:54:27;98688.25;;;17.91;77.25
55470;BME280;41334;47.872;16.384;2023-07-13T04:59:29;98664.41;;;17.74;80.68
55470;BME280;41334;47.872;16.384;2023-07-13T05:04:30;98643.63;;;17.49;83.78
55470;BME280;41334;47.872;16.384;2023-07-13T05:09:32;98703.53;;;17.94;79.73
55470;BME280;41334;47.872;16.384;2023-07-13T05:14:34;98787.53;;;18.77;76.34
55470;BME280;41334;47.872;16.384;2023-07-13T05:19:36;98802.41;;;19.55;73.82
55470;BME280;41334;47.872;16.384;2023-07-13T05:24:38;98826.19;;;20.13;72.73
55470;BME280;41334;47.872;16.384;2023-07-13T05:29:40;98856.84;;;20.29;70.72
55470;BME280;41334;47.872;16.384;2023-07-13T05:34:42;98859.13;;;20.12;70.45
55470;BME280;41334;47.872;16.384;2023-07-13T05:39:43;98885.72;;;19.78;72.47
55470;BME280;41334;47.872;16.384;2023-07-13T05:44:45;98871.16;;;19.65;72.08
55470;BME280;41334;47.872;16.384;2023-07-13T05:49:47;98872.09;;;19.39;72.32
55470;BME280;41334;47.872;16.384;2023-07-13T05:54:49;98858.06;;;19.05;74.50
55470;BME280;41334;47.872;16.384;2023-07-13T05:59:51;98847.34;;;18.81;75.53
55470;BME280;41334;47.872;16.384;2023-07-13T06:04:53;98847.66;;;19.06;72.36
55470;BME280;41334;47.872;16.384;2023-07-13T06:09:55;98851.28;;;19.43;71.48
55470;BME280;41334;47.872;16.384;2023-07-13T06:14:57;98869.19;;;19.69;71.08
55470;BME280;41334;47.872;16.384;2023-07-13T06:19:59;98866.41;;;20.20;69.65
55470;BME280;41334;47.872;16.384;2023-07-13T06:25:01;98859.72;;;20.39;68.22
55470;BME280;41334;47.872;16.384;2023-07-13T06:30:02;98865.53;;;20.71;66.96
55470;BME280;41334;47.872;16.384;2023-07-13T06:35:05;98874.69;;;21.59;65.04
55470;BME280;41334;47.872;16.384;2023-07-13T06:40:07;98876.75;;;22.51;63.19
55470;BME280;41334;47.872;16.384;2023-07-13T06:45:09;98868.59;;;23.59;58.87
55470;BME280;41334;47.872;16.384;2023-07-13T06:50:11;98866.22;;;23.54;58.31
55470;BME280;41334;47.872;16.384;2023-07-13T06:55:13;98872.94;;;23.78;56.00
55470;BME280;41334;47.872;16.384;2023-07-13T07:00:15;98882.81;;;24.07;56.53
55470;BME280;41334;47.872;16.384;2023-07-13T07:05:17;98873.59;;;24.41;52.21
55470;BME280;41334;47.872;16.384;2023-07-13T07:10:22;98866.59;;;25.25;50.12
55470;BME280;41334;47.872;16.384;2023-07-13T07:15:24;98869.75;;;25.88;47.31
55470;BME280;41334;47.872;16.384;2023-07-13T07:20:25;98877.75;;;26.43;47.65
55470;BME280;41334;47.872;16.384;2023-07-13T07:25:29;98877.75;;;26.43;47.89
55470;BME280;41334;47.872;16.384;2023-07-13T07:30:33;98870.94;;;26.14;48.47
55470;BME280;41334;47.872;16.384;2023-07-13T07:35:38;98866.25;;;26.27;47.58
55470;BME280;41334;47.872;16.384;2023-07-13T07:41:03;98863.47;;;26.24;46.23
55470;BME280;41334;47.872;16.384;2023-07-13T07:46:08;98862.22;;;26.01;45.73
55470;BME280;41334;47.872;16.384;2023-07-13T07:51:10;98862.53;;;26.07;45.84
55470;BME280;41334;47.872;16.384;2023-07-13T07:56:12;98867.91;;;26.25;44.60
55470;BME280;41334;47.872;16.384;2023-07-13T08:01:17;98865.63;;;26.16;44.38
55470;BME280;41334;47.872;16.384;2023-07-13T08:06:22;98871.66;;;26.45;44.96
55470;BME280;41334;47.872;16.384;2023-07-13T08:11:27;98883.22;;;26.31;43.88
55470;BME280;41334;47.872;16.384;2023-07-13T08:16:32;98875.59;;;26.94;42.42
55470;BME280;41334;47.872;16.384;2023-07-13T08:21:34;98875.31;;;26.85;41.76
55470;BME280;41334;47.872;16.384;2023-07-13T08:26:37;98871.25;;;26.43;42.63
55470;BME280;41334;47.872;16.384;2023-07-13T08:31:39;98875.19;;;26.73;41.32
55470;BME280;41334;47.872;16.384;2023-07-13T08:36:41;98883.72;;;26.92;41.51
55470;BME280;41334;47.872;16.384;2023-07-13T08:41:48;98880.25;;;27.05;40.98
55470;BME280;41334;47.872;16.384;2023-07-13T08:46:55;98887.19;;;27.60;39.48
55470;BME280;41334;47.872;16.384;2023-07-13T08:52:04;98889.84;;;28.19;37.82
55470;BME280;41334;47.872;16.384;2023-07-13T08:57:19;98886.75;;;29.04;36.37
55470;BME280;41334;47.872;16.384;2023-07-13T09:02:45;98893.50;;;29.52;35.58
55470;BME280;41334;47.872;16.384;2023-07-13T09:08:26;98904.97;;;28.94;34.82
55470;BME280;41334;47.872;16.384;2023-07-13T09:13:37;98895.13;;;29.66;33.23
55470;BME280;41334;47.872;16.384;2023-07-13T09:18:44;98902.97;;;29.08;35.25
55470;BME280;41334;47.872;16.384;2023-07-13T09:23:52;98891.94;;;29.90;32.70
55470;BME280;41334;47.872;16.384;2023-07-13T09:28:59;98887.00;;;30.16;35.08
55470;BME280;41334;47.872;16.384;2023-07-13T09:34:03;98898.00;;;30.04;34.88
55470;BME280;41334;47.872;16.384;2023-07-13T09:44:16;98905.84;;;29.49;34.34
55470;BME280;41334;47.872;16.384;2023-07-13T09:49:26;98901.75;;;28.63;33.14
55470;BME280;41334;47.872;16.384;2023-07-13T09:54:29;98911.94;;;29.64;32.22
55470;BME280;41334;47.872;16.384;2023-07-13T09:59:35;98907.91;;;29.20;33.11
55470;BME280;41334;47.872;16.384;2023-07-13T10:04:41;98912.97;;;29.70;32.59
55470;BME280;41334;47.872;16.384;2023-07-13T10:09:43;98915.59;;;30.16;32.23
55470;BME280;41334;47.872;16.384;2023-07-13T10:14:45;98915.44;;;30.57;31.54
55470;BME280;41334;47.872;16.384;2023-07-13T10:19:48;98924.50;;;31.87;28.92
55470;BME280;41334;47.872;16.384;2023-07-13T10:24:50;98914.31;;;31.77;28.55
55470;BME280;41334;47.872;16.384;2023-07-13T10:30:11;98922.59;;;31.09;29.05
55470;BME280;41334;47.872;16.384;2023-07-13T10:35:18;98926.88;;;29.68;32.43
55470;BME280;41334;47.872;16.384;2023-07-13T10:40:30;98922.41;;;29.13;32.33
55470;BME280;41334;47.872;16.384;2023-07-13T10:45:37;98923.66;;;29.41;31.34
55470;BME280;41334;47.872;16.384;2023-07-13T10:50:42;98922.31;;;29.71;32.98
55470;BME280;41334;47.872;16.384;2023-07-13T11:01:10;98922.19;;;29.20;31.41
55470;BME280;41334;47.872;16.384;2023-07-13T11:16:43;98928.53;;;29.95;29.12
55470;BME280;41334;47.872;16.384;2023-07-13T11:22:10;98920.84;;;29.79;28.04
55470;BME280;41334;47.872;16.384;2023-07-13T11:27:35;98932.41;;;30.01;30.97
55470;BME280;41334;47.872;16.384;2023-07-13T11:32:40;98939.59;;;30.31;28.91
55470;BME280;41334;47.872;16.384;2023-07-13T11:37:42;98934.38;;;29.91;28.86
55470;BME280;41334;47.872;16.384;2023-07-13T11:42:46;98918.69;;;29.96;27.53
55470;BME280;41334;47.872;16.384;2023-07-13T11:47:49;98931.47;;;29.66;27.86
55470;BME280;41334;47.872;16.384;2023-07-13T11:52:53;98923.19;;;29.13;29.31
55470;BME280;41334;47.872;16.384;2023-07-13T11:57:58;98909.38;;;28.83;28.11
55470;BME280;41334;47.872;16.384;2023-07-13T12:03:03;98898.94;;;28.92;28.05
55470;BME280;41334;47.872;16.384;2023-07-13T12:08:10;98903.19;;;29.00;28.65
55470;BME280;41334;47.872;16.384;2023-07-13T12:13:26;98904.13;;;29.39;26.99
55470;BME280;41334;47.872;16.384;2023-07-13T12:18:30;98895.31;;;29.34;28.68
55470;BME280;41334;47.872;16.384;2023-07-13T12:23:34;98899.41;;;29.87;28.84
55470;BME280;41334;47.872;16.384;2023-07-13T12:28:43;98910.13;;;29.83;27.41
55470;BME280;41334;47.872;16.384;2023-07-13T12:33:45;98901.63;;;29.79;29.09
55470;BME280;41334;47.872;16.384;2023-07-13T12:38:47;98895.69;;;29.74;28.27
55470;BME280;41334;47.872;16.384;2023-07-13T12:43:49;98898.13;;;30.14;28.20
55470;BME280;41334;47.872;16.384;2023-07-13T12:48:52;98888.75;;;30.00;28.98
55470;BME280;41334;47.872;16.384;2023-07-13T12:54:16;98892.66;;;29.26;31.15
55470;BME280;41334;47.872;16.384;2023-07-13T12:59:21;98883.66;;;29.41;30.61
55470;BME280;41334;47.872;16.384;2023-07-13T13:04:23;98856.75;;;29.93;30.39
55470;BME280;41334;47.872;16.384;2023-07-13T13:09:25;98832.75;;;29.39;31.47
55470;BME280;41334;47.872;16.384;2023-07-13T13:14:27;98841.31;;;29.39;30.81
55470;BME280;41334;47.872;16.384;2023-07-13T13:19:29;98841.78;;;29.50;30.46
55470;BME280;41334;47.872;16.384;2023-07-13T13:24:32;98845.81;;;29.11;29.99
55470;BME280;41334;47.872;16.384;2023-07-13T13:29:37;98843.34;;;28.84;30.02
55470;BME280;41334;47.872;16.384;2023-07-13T13:34:41;98849.72;;;28.88;29.92
55470;BME280;41334;47.872;16.384;2023-07-13T13:39:44;98838.16;;;29.21;29.75
55470;BME280;41334;47.872;16.384;2023-07-13T13:45:04;98807.97;;;29.62;28.97
55470;BME280;41334;47.872;16.384;2023-07-13T13:50:14;98809.56;;;29.75;29.45
55470;BME280;41334;47.872;16.384;2023-07-13T13:55:19;98797.47;;;29.33;29.75
55470;BME280;41334;47.872;16.384;2023-07-13T14:00:22;98806.63;;;28.41;31.05
55470;BME280;41334;47.872;16.384;2023-07-13T14:05:25;98827.06;;;27.90;31.26
55470;BME280;41334;47.872;16.384;2023-07-13T14:10:28;98843.53;;;27.30;32.70
55470;BME280;41334;47.872;16.384;2023-07-13T14:15:31;98875.94;;;27.16;33.67
55470;BME280;41334;47.872;16.384;2023-07-13T14:20:35;98880.06;;;27.52;33.19
55470;BME280;41334;47.872;16.384;2023-07-13T14:25:37;98877.22;;;27.32;33.92
55470;BME280;41334;47.872;16.384;2023-07-13T14:30:39;98887.41;;;26.69;35.03
55470;BME280;41334;47.872;16.384;2023-07-13T14:35:41;98885.28;;;26.54;35.63
55470;BME280;41334;47.872;16.384;2023-07-13T14:40:44;98883.16;;;26.11;36.08
55470;BME280;41334;47.872;16.384;2023-07-13T14:45:48;98877.69;;;25.69;37.30
55470;BME280;41334;47.872;16.384;2023-07-13T14:50:56;98878.44;;;25.20;38.85
55470;BME280;41334;47.872;16.384;2023-07-13T14:55:58;98891.81;;;25.19;38.73
55470;BME280;41334;47.872;16.384;2023-07-13T15:01:00;98908.31;;;25.28;38.42
55470;BME280;41334;47.872;16.384;2023-07-13T15:06:02;98897.38;;;25.26;38.81
55470;BME280;41334;47.872;16.384;2023-07-13T15:11:04;98900.88;;;25.07;38.91
55470;BME280;41334;47.872;16.384;2023-07-13T15:16:18;98900.97;;;25.30;39.34
55470;BME280;41334;47.872;16.384;2023-07-13T15:21:23;98905.22;;;25.15;38.98
55470;BME280;41334;47.872;16.384;2023-07-13T15:26:25;98914.31;;;25.33;38.86
55470;BME280;41334;47.872;16.384;2023-07-13T15:31:27;98911.34;;;25.44;38.58
55470;BME280;41334;47.872;16.384;2023-07-13T15:36:30;98915.63;;;25.56;38.57
55470;BME280;41334;47.872;16.384;2023-07-13T15:41:40;98914.75;;;25.59;38.13
55470;BME280;41334;47.872;16.384;2023-07-13T15:46:44;98926.31;;;25.45;38.57
55470;BME280;41334;47.872;16.384;2023-07-13T15:51:46;98937.94;;;25.23;39.25
55470;BME280;41334;47.872;16.384;2023-07-13T15:56:53;98931.75;;;24.94;39.37
55470;BME280;41334;47.872;16.384;2023-07-13T16:01:55;98936.63;;;24.94;40.59
55470;BME280;41334;47.872;16.384;2023-07-13T16:06:57;98941.69;;;24.75;41.24
55470;BME280;41334;47.872;16.384;2023-07-13T16:11:59;98952.63;;;24.73;42.79
55470;BME280;41334;47.872;16.384;2023-07-13T16:17:01;98960.53;;;24.51;44.75
55470;BME280;41334;47.872;16.384;2023-07-13T16:22:04;98977.31;;;24.24;47.82
55470;BME280;41334;47.872;16.384;2023-07-13T16:27:11;98992.56;;;23.82;48.55
55470;BME280;41334;47.872;16.384;2023-07-13T16:32:13;98993.97;;;23.34;50.33
55470;BME280;41334;47.872;16.384;2023-07-13T16:37:19;98996.47;;;23.00;51.50
55470;BME280;41334;47.872;16.384;2023-07-13T16:42:25;99004.63;;;22.66;53.22
55470;BME280;41334;47.872;16.384;2023-07-13T16:47:27;99012.25;;;22.30;54.08
55470;BME280;41334;47.872;16.384;2023-07-13T16:52:29;99020.66;;;22.01;54.83
55470;BME280;41334;47.872;16.384;2023-07-13T16:57:37;99020.19;;;21.74;56.62
55470;BME280;41334;47.872;16.384;2023-07-13T17:02:39;99020.16;;;21.67;56.11
55470;BME280;41334;47.872;16.384;2023-07-13T17:07:41;99026.94;;;21.56;57.53
55470;BME280;41334;47.872;16.384;2023-07-13T17:12:45;99034.53;;;21.41;59.80
55470;BME280;41334;47.872;16.384;2023-07-13T17:17:49;99038.81;;;21.13;59.17
55470;BME280;41334;47.872;16.384;2023-07-13T17:22:53;99030.19;;;20.88;61.63
55470;BME280;41334;47.872;16.384;2023-07-13T17:27:57;99026.44;;;20.70;63.13
55470;BME280;41334;47.872;16.384;2023-07-13T17:32:59;99024.69;;;20.58;63.28
55470;BME280;41334;47.872;16.384;2023-07-13T17:38:03;99006.00;;;20.32;64.14
55470;BME280;41334;47.872;16.384;2023-07-13T17:43:05;98995.44;;;20.18;64.33
55470;BME280;41334;47.872;16.384;2023-07-13T17:48:09;99003.19;;;19.91;64.62
55470;BME280;41334;47.872;16.384;2023-07-13T17:53:15;98994.16;;;19.75;64.17
55470;BME280;41334;47.872;16.384;2023-07-13T17:58:18;98997.63;;;19.61;66.64
55470;BME280;41334;47.872;16.384;2023-07-13T18:03:26;98987.72;;;19.41;66.88
55470;BME280;41334;47.872;16.384;2023-07-13T18:08:36;98993.34;;;19.41;68.36
55470;BME280;41334;47.872;16.384;2023-07-13T18:13:38;98987.53;;;19.27;68.28
55470;BME280;41334;47.872;16.384;2023-07-13T18:18:42;98999.78;;;19.11;68.54
55470;BME280;41334;47.872;16.384;2023-07-13T18:23:46;98991.41;;;19.15;68.25
55470;BME280;41334;47.872;16.384;2023-07-13T18:28:48;98994.03;;;19.01;67.26
55470;BME280;41334;47.872;16.384;2023-07-13T18:33:52;98995.88;;;18.89;69.32
55470;BME280;41334;47.872;16.384;2023-07-13T18:38:55;98993.00;;;18.86;69.68
55470;BME280;41334;47.872;16.384;2023-07-13T18:43:57;99000.34;;;18.67;71.12
55470;BME280;41334;47.872;16.384;2023-07-13T18:49:00;98992.25;;;18.62;70.66
55470;BME280;41334;47.872;16.384;2023-07-13T18:54:02;98987.69;;;18.51;72.22
55470;BME280;41334;47.872;16.384;2023-07-13T18:59:05;98992.31;;;18.43;71.94
55470;BME280;41334;47.872;16.384;2023-07-13T19:04:32;98990.41;;;18.47;71.49
55470;BME280;41334;47.872;16.384;2023-07-13T19:09:34;99005.16;;;18.44;72.02
55470;BME280;41334;47.872;16.384;2023-07-13T19:14:36;99017.50;;;18.39;72.18
55470;BME280;41334;47.872;16.384;2023-07-13T19:19:37;99023.00;;;18.32;72.51
55470;BME280;41334;47.872;16.384;2023-07-13T19:24:39;99028.53;;;18.29;71.57
55470;BME280;41334;47.872;16.384;2023-07-13T19:29:42;99046.13;;;18.26;70.83
55470;BME280;41334;47.872;16.384;2023-07-13T19:34:44;99042.81;;;18.20;71.72
55470;BME280;41334;47.872;16.384;2023-07-13T19:39:45;99058.03;;;18.19;71.66
55470;BME280;41334;47.872;16.384;2023-07-13T19:44:48;99059.38;;;18.06;71.03
55470;BME280;41334;47.872;16.384;2023-07-13T19:49:51;99065.38;;;18.04;71.14
55470;BME280;41334;47.872;16.384;2023-07-13T19:54:56;99066.56;;;18.03;70.79
55470;BME280;41334;47.872;16.384;2023-07-13T19:59:58;99062.88;;;17.99;70.87
55470;BME280;41334;47.872;16.384;2023-07-13T20:05:01;99069.66;;;17.98;68.62
55470;BME280;41334;47.872;16.384;2023-07-13T20:10:16;99078.81;;;17.95;69.81
55470;BME280;41334;47.872;16.384;2023-07-13T20:15:22;99079.03;;;17.86;69.77
55470;BME280;41334;47.872;16.384;2023-07-13T20:20:33;99087.38;;;17.83;69.49
55470;BME280;41334;47.872;16.384;2023-07-13T20:25:35;99088.47;;;17.78;68.78
55470;BME280;41334;47.872;16.384;2023-07-13T20:30:41;99075.28;;;17.79;69.02
55470;BME280;41334;47.872;16.384;2023-07-13T20:35:46;99080.47;;;17.77;67.25
55470;BME280;41334;47.872;16.384;2023-07-13T20:40:49;99069.59;;;17.75;67.18
55470;BME280;41334;47.872;16.384;2023-07-13T20:45:59;99072.41;;;17.75;66.04
55470;BME280;41334;47.872;16.384;2023-07-13T20:51:02;99069.53;;;17.72;66.49
55470;BME280;41334;47.872;16.384;2023-07-13T20:56:15;99071.44;;;17.68;65.83
55470;BME280;41334;47.872;16.384;2023-07-13T21:01:23;99070.13;;;17.61;65.97
55470;BME280;41334;47.872;16.384;2023-07-13T21:06:31;99073.63;;;17.58;65.54
55470;BME280;41334;47.872;16.384;2023-07-13T21:11:35;99081.97;;;17.55;65.68
55470;BME280;41334;47.872;16.384;2023-07-13T21:16:37;99081.88;;;17.51;64.81
55470;BME280;41334;47.872;16.384;2023-07-13T21:21:39;99079.00;;;17.48;65.45
55470;BME280;41334;47.872;16.384;2023-07-13T21:26:42;99083.72;;;17.44;65.00
55470;BME280;41334;47.872;16.384;2023-07-13T21:31:44;99072.44;;;17.40;64.72
55470;BME280;41334;47.872;16.384;2023-07-13T21:36:46;99081.94;;;17.35;65.61
55470;BME280;41334;47.872;16.384;2023-07-13T21:41:48;99079.81;;;17.29;64.93
55470;BME280;41334;47.872;16.384;2023-07-13T21:46:50;99072.03;;;17.22;64.37
55470;BME280;41334;47.872;16.384;2023-07-13T21:51:52;99071.97;;;17.19;64.43
55470;BME280;41334;47.872;16.384;2023-07-13T21:56:55;99081.47;;;17.14;64.83
55470;BME280;41334;47.872;16.384;2023-07-13T22:01:58;99093.31;;;17.07;64.15
55470;BME280;41334;47.872;16.384;2023-07-13T22:07:01;99106.69;;;16.98;64.14
55470;BME280;41334;47.872;16.384;2023-07-13T22:12:04;99113.28;;;16.90;64.23
55470;BME280;41334;47.872;16.384;2023-07-13T22:17:12;99132.44;;;16.88;64.76
55470;BME280;41334;47.872;16.384;2023-07-13T22:22:21;99146.81;;;16.87;64.91
55470;BME280;41334;47.872;16.384;2023-07-13T22:27:23;99151.59;;;16.86;64.27
55470;BME280;41334;47.872;16.384;2023-07-13T22:32:30;99159.63;;;16.88;63.46
55470;BME280;41334;47.872;16.384;2023-07-13T22:37:34;99159.63;;;16.88;63.08
55470;BME280;41334;47.872;16.384;2023-07-13T22:42:37;99154.66;;;16.97;62.39
55470;BME280;41334;47.872;16.384;2023-07-13T22:47:41;99163.94;;;17.01;61.41
55470;BME280;41334;47.872;16.384;2023-07-13T22:52:43;99162.03;;;17.05;61.36
55470;BME280;41334;47.872;16.384;2023-07-13T22:57:47;99176.13;;;17.08;60.58
55470;BME280;41334;47.872;16.384;2023-07-13T23:02:52;99162.78;;;17.18;60.27
55470;BME280;41334;47.872;16.384;2023-07-13T23:07:54;99165.25;;;17.23;60.02
55470;BME280;41334;47.872;16.384;2023-07-13T23:12:56;99173.66;;;17.23;59.57
55470;BME280;41334;47.872;16.384;2023-07-13T23:18:05;99172.50;;;17.24;59.94
55470;BME280;41334;47.872;16.384;2023-07-13T23:23:18;99187.97;;;17.18;59.78
55470;BME280;41334;47.872;16.384;2023-07-13T23:28:20;99196.72;;;17.16;59.53
55470;BME280;41334;47.872;16.384;2023-07-13T23:33:26;99200.97;;;17.10;61.21
55470;BME280;41334;47.872;16.384;2023-07-13T23:38:29;99196.72;;;17.00;60.97
55470;BME280;41334;47.872;16.384;2023-07-13T23:43:31;99200.53;;;16.92;61.22
55470;BME280;41334;47.872;16.384;2023-07-13T23:48:33;99196.28;;;16.82;60.76
55470;BME280;41334;47.872;16.384;2023-07-13T23:53:35;99205.63;;;16.74;61.15
55470;BME280;41334;47.872;16.384;2023-07-13T23:58:37;99197.88;;;16.68;62.49
